Hovedside
METAR-TAF:

METAR-TAF

Lufthavner :

Majuro, Marshalløyene

breddegrad: 07-04N, lengdegrad: 171-17E, høyde over havet: 2 m

Gjeldene værobservasjon

Denne rapporten ble laget for 3 minutter siden, klokken 19:33 UTC
Vind 15 kt fra Øst-nordøst
Temperatur 29°C
Luftfuktighet 79%
Trykk 1011 hPa
Sikt: 24.1 km
Få skyer i en høyde av 1500 ft
Spredte skyer i en høyde av 5000 ft
Brutte skyer i en høyde av 12000 ft
Overskyet i en høyde av 30000 ft

METAR: PKMJ 231933Z 06015KT 15SM FEW015 SCT050 BKN120 OVC300 29/25 A2985 RMK FIRST

Tid: 07:36 (19:36 UTC)

Varsel

Denne rapporten ble laget for 2 timer og 0 minutter siden, klokken 17:36 UTC
Varsel gyldig fra 23. klokken 18 UTC til 24. klokken 18 UTC
Vind 14 kt fra Øst-nordøst
Sikt: 10 km
Få skyer i en høyde av 1800 ft
Spredte skyer i en høyde av 5000 ft
Brutte skyer i en høyde av 14000 ft
regnbyger i nærheten

TAF: PKMJ 231736Z 2318/2418 07014KT P6SM VCSH FEW018 SCT050 BKN140

Værobservasjoner og værvarsel for over 4000 flyplasser (METAR- og TAF-rapporter).

Tilgjengelige stasjoner er representert av de røde og gule prikkene på kartet.

Hold musepekeren over prikken for å se navnet på stasjonen.

Klikk så for å se værobservasjoner og -varsler.

For å forandre kartet kan du klikke på den grønne knappen med svart kryss for å zoome inn, på den grønne knappen med strek for å zoome ut, eller på de grønne pilene for å se tilstøtende kart.


METAR-TAF: